sensor_id;sensor_type;location;lat;lon;timestamp;P1;durP1;ratioP1;P2;durP2;ratioP2
6348;SDS011;3207;42.648;23.406;2023-04-21T00:02:23;15.10;;;11.55;;
6348;SDS011;3207;42.648;23.406;2023-04-21T00:04:51;14.40;;;11.93;;
6348;SDS011;3207;42.648;23.406;2023-04-21T00:07:18;15.63;;;11.40;;
6348;SDS011;3207;42.648;23.406;2023-04-21T00:09:46;15.80;;;12.13;;
6348;SDS011;3207;42.648;23.406;2023-04-21T00:12:14;16.25;;;11.80;;
6348;SDS011;3207;42.648;23.406;2023-04-21T00:14:41;17.77;;;13.02;;
6348;SDS011;3207;42.648;23.406;2023-04-21T00:17:08;16.50;;;13.52;;
6348;SDS011;3207;42.648;23.406;2023-04-21T00:19:35;20.25;;;14.63;;
6348;SDS011;3207;42.648;23.406;2023-04-21T00:22:01;16.75;;;12.00;;
6348;SDS011;3207;42.648;23.406;2023-04-21T00:24:28;18.08;;;13.68;;
6348;SDS011;3207;42.648;23.406;2023-04-21T00:26:55;13.88;;;12.27;;
6348;SDS011;3207;42.648;23.406;2023-04-21T00:29:23;14.60;;;12.88;;
6348;SDS011;3207;42.648;23.406;2023-04-21T00:31:50;15.13;;;12.40;;
6348;SDS011;3207;42.648;23.406;2023-04-21T00:34:17;17.77;;;11.48;;
6348;SDS011;3207;42.648;23.406;2023-04-21T00:36:44;17.13;;;12.73;;
6348;SDS011;3207;42.648;23.406;2023-04-21T00:39:10;14.90;;;11.95;;
6348;SDS011;3207;42.648;23.406;2023-04-21T00:41:38;15.55;;;12.00;;
6348;SDS011;3207;42.648;23.406;2023-04-21T00:44:05;14.95;;;12.25;;
6348;SDS011;3207;42.648;23.406;2023-04-21T00:46:34;14.05;;;11.35;;
6348;SDS011;3207;42.648;23.406;2023-04-21T00:49:03;14.18;;;12.07;;
6348;SDS011;3207;42.648;23.406;2023-04-21T00:51:35;15.88;;;12.02;;
6348;SDS011;3207;42.648;23.406;2023-04-21T00:54:10;13.27;;;10.77;;
6348;SDS011;3207;42.648;23.406;2023-04-21T00:56:45;14.00;;;11.18;;
6348;SDS011;3207;42.648;23.406;2023-04-21T00:59:12;13.85;;;10.40;;
6348;SDS011;3207;42.648;23.406;2023-04-21T01:01:40;13.18;;;10.20;;
6348;SDS011;3207;42.648;23.406;2023-04-21T01:04:07;13.38;;;10.68;;
6348;SDS011;3207;42.648;23.406;2023-04-21T01:06:34;14.25;;;11.38;;
6348;SDS011;3207;42.648;23.406;2023-04-21T01:09:01;13.15;;;11.75;;
6348;SDS011;3207;42.648;23.406;2023-04-21T01:11:29;12.85;;;11.50;;
6348;SDS011;3207;42.648;23.406;2023-04-21T01:13:56;13.70;;;11.60;;
6348;SDS011;3207;42.648;23.406;2023-04-21T01:16:23;15.63;;;12.32;;
6348;SDS011;3207;42.648;23.406;2023-04-21T01:18:52;13.52;;;11.60;;
6348;SDS011;3207;42.648;23.406;2023-04-21T01:21:19;16.80;;;11.75;;
6348;SDS011;3207;42.648;23.406;2023-04-21T01:23:48;13.38;;;11.43;;
6348;SDS011;3207;42.648;23.406;2023-04-21T01:26:16;18.02;;;12.23;;
6348;SDS011;3207;42.648;23.406;2023-04-21T01:28:43;15.02;;;12.40;;
6348;SDS011;3207;42.648;23.406;2023-04-21T01:31:11;17.23;;;12.25;;
6348;SDS011;3207;42.648;23.406;2023-04-21T01:33:38;14.13;;;11.60;;
6348;SDS011;3207;42.648;23.406;2023-04-21T01:36:06;16.95;;;11.98;;
6348;SDS011;3207;42.648;23.406;2023-04-21T01:38:36;16.92;;;13.55;;
6348;SDS011;3207;42.648;23.406;2023-04-21T01:41:08;14.70;;;12.57;;
6348;SDS011;3207;42.648;23.406;2023-04-21T01:43:35;16.75;;;13.15;;
6348;SDS011;3207;42.648;23.406;2023-04-21T01:46:03;15.75;;;13.20;;
6348;SDS011;3207;42.648;23.406;2023-04-21T01:48:30;15.30;;;13.10;;
6348;SDS011;3207;42.648;23.406;2023-04-21T01:50:57;14.50;;;12.55;;
6348;SDS011;3207;42.648;23.406;2023-04-21T01:53:24;20.25;;;13.32;;
6348;SDS011;3207;42.648;23.406;2023-04-21T01:55:51;15.88;;;12.65;;
6348;SDS011;3207;42.648;23.406;2023-04-21T01:58:19;19.13;;;12.80;;
6348;SDS011;3207;42.648;23.406;2023-04-21T02:00:46;18.08;;;12.27;;
6348;SDS011;3207;42.648;23.406;2023-04-21T02:03:13;17.80;;;12.45;;
6348;SDS011;3207;42.648;23.406;2023-04-21T02:05:39;16.77;;;12.43;;
6348;SDS011;3207;42.648;23.406;2023-04-21T02:08:06;13.52;;;11.52;;
6348;SDS011;3207;42.648;23.406;2023-04-21T02:10:33;16.77;;;12.55;;
6348;SDS011;3207;42.648;23.406;2023-04-21T02:13:00;13.93;;;12.35;;
6348;SDS011;3207;42.648;23.406;2023-04-21T02:15:28;13.40;;;11.80;;
6348;SDS011;3207;42.648;23.406;2023-04-21T02:17:55;15.38;;;11.65;;
6348;SDS011;3207;42.648;23.406;2023-04-21T02:20:21;12.23;;;10.90;;
6348;SDS011;3207;42.648;23.406;2023-04-21T02:22:48;14.38;;;12.30;;
6348;SDS011;3207;42.648;23.406;2023-04-21T02:25:15;14.85;;;11.77;;
6348;SDS011;3207;42.648;23.406;2023-04-21T02:27:42;14.68;;;12.23;;
6348;SDS011;3207;42.648;23.406;2023-04-21T02:30:09;18.95;;;13.07;;
6348;SDS011;3207;42.648;23.406;2023-04-21T02:32:37;15.82;;;12.90;;
6348;SDS011;3207;42.648;23.406;2023-04-21T02:35:04;17.77;;;13.50;;
6348;SDS011;3207;42.648;23.406;2023-04-21T02:37:31;15.90;;;12.45;;
6348;SDS011;3207;42.648;23.406;2023-04-21T02:39:58;17.27;;;13.68;;
6348;SDS011;3207;42.648;23.406;2023-04-21T02:42:25;15.70;;;12.90;;
6348;SDS011;3207;42.648;23.406;2023-04-21T02:44:52;14.02;;;12.15;;
6348;SDS011;3207;42.648;23.406;2023-04-21T02:47:18;15.77;;;13.20;;
6348;SDS011;3207;42.648;23.406;2023-04-21T02:49:47;16.80;;;12.60;;
6348;SDS011;3207;42.648;23.406;2023-04-21T02:52:13;16.63;;;13.18;;
6348;SDS011;3207;42.648;23.406;2023-04-21T02:54:40;15.00;;;12.57;;
6348;SDS011;3207;42.648;23.406;2023-04-21T02:57:07;18.73;;;14.57;;
6348;SDS011;3207;42.648;23.406;2023-04-21T02:59:34;17.63;;;13.20;;
6348;SDS011;3207;42.648;23.406;2023-04-21T03:02:01;17.70;;;12.13;;
6348;SDS011;3207;42.648;23.406;2023-04-21T03:04:28;13.93;;;12.43;;
6348;SDS011;3207;42.648;23.406;2023-04-21T03:06:57;16.58;;;13.25;;
6348;SDS011;3207;42.648;23.406;2023-04-21T03:09:24;15.88;;;11.85;;
6348;SDS011;3207;42.648;23.406;2023-04-21T03:11:51;15.10;;;12.02;;
6348;SDS011;3207;42.648;23.406;2023-04-21T03:14:18;17.30;;;13.23;;
6348;SDS011;3207;42.648;23.406;2023-04-21T03:16:44;15.10;;;12.55;;
6348;SDS011;3207;42.648;23.406;2023-04-21T03:19:11;18.07;;;13.43;;
6348;SDS011;3207;42.648;23.406;2023-04-21T03:21:38;15.23;;;12.50;;
6348;SDS011;3207;42.648;23.406;2023-04-21T03:24:06;14.80;;;12.77;;
6348;SDS011;3207;42.648;23.406;2023-04-21T03:26:33;19.40;;;12.18;;
6348;SDS011;3207;42.648;23.406;2023-04-21T03:29:00;15.05;;;12.10;;
6348;SDS011;3207;42.648;23.406;2023-04-21T03:31:27;17.20;;;13.60;;
6348;SDS011;3207;42.648;23.406;2023-04-21T03:33:53;14.83;;;11.93;;
6348;SDS011;3207;42.648;23.406;2023-04-21T03:36:20;18.15;;;11.80;;
6348;SDS011;3207;42.648;23.406;2023-04-21T03:38:47;19.23;;;11.70;;
6348;SDS011;3207;42.648;23.406;2023-04-21T03:41:15;18.17;;;12.05;;
6348;SDS011;3207;42.648;23.406;2023-04-21T03:43:42;15.77;;;12.43;;
6348;SDS011;3207;42.648;23.406;2023-04-21T03:46:15;18.55;;;12.93;;
6348;SDS011;3207;42.648;23.406;2023-04-21T03:48:43;17.58;;;12.45;;
6348;SDS011;3207;42.648;23.406;2023-04-21T03:51:10;16.90;;;12.97;;
6348;SDS011;3207;42.648;23.406;2023-04-21T03:53:37;15.70;;;12.37;;
6348;SDS011;3207;42.648;23.406;2023-04-21T03:56:04;14.07;;;11.63;;
6348;SDS011;3207;42.648;23.406;2023-04-21T03:58:32;16.97;;;12.67;;
6348;SDS011;3207;42.648;23.406;2023-04-21T04:00:59;15.63;;;12.10;;
6348;SDS011;3207;42.648;23.406;2023-04-21T04:03:26;13.30;;;10.40;;
6348;SDS011;3207;42.648;23.406;2023-04-21T04:05:53;12.90;;;10.67;;
6348;SDS011;3207;42.648;23.406;2023-04-21T04:08:20;13.93;;;9.87;;
6348;SDS011;3207;42.648;23.406;2023-04-21T04:10:47;16.38;;;9.50;;
6348;SDS011;3207;42.648;23.406;2023-04-21T04:13:14;14.77;;;10.00;;
6348;SDS011;3207;42.648;23.406;2023-04-21T04:15:42;15.00;;;10.33;;
6348;SDS011;3207;42.648;23.406;2023-04-21T04:18:09;15.70;;;10.27;;
6348;SDS011;3207;42.648;23.406;2023-04-21T04:20:35;13.27;;;10.23;;
6348;SDS011;3207;42.648;23.406;2023-04-21T04:23:02;15.73;;;10.97;;
6348;SDS011;3207;42.648;23.406;2023-04-21T04:25:29;14.23;;;10.80;;
6348;SDS011;3207;42.648;23.406;2023-04-21T04:27:57;14.33;;;11.87;;
6348;SDS011;3207;42.648;23.406;2023-04-21T04:30:24;15.27;;;11.20;;
6348;SDS011;3207;42.648;23.406;2023-04-21T04:32:54;12.70;;;10.40;;
6348;SDS011;3207;42.648;23.406;2023-04-21T04:35:22;12.50;;;11.03;;
6348;SDS011;3207;42.648;23.406;2023-04-21T04:37:49;13.07;;;10.82;;
6348;SDS011;3207;42.648;23.406;2023-04-21T04:40:16;17.90;;;10.73;;
6348;SDS011;3207;42.648;23.406;2023-04-21T04:42:44;15.03;;;10.77;;
6348;SDS011;3207;42.648;23.406;2023-04-21T04:45:13;14.43;;;10.37;;
6348;SDS011;3207;42.648;23.406;2023-04-21T04:47:40;18.90;;;12.23;;
6348;SDS011;3207;42.648;23.406;2023-04-21T04:50:10;18.83;;;11.32;;
6348;SDS011;3207;42.648;23.406;2023-04-21T04:52:37;14.35;;;11.32;;
6348;SDS011;3207;42.648;23.406;2023-04-21T04:55:04;18.30;;;12.60;;
6348;SDS011;3207;42.648;23.406;2023-04-21T04:57:32;15.63;;;12.48;;
6348;SDS011;3207;42.648;23.406;2023-04-21T04:59:59;19.10;;;12.55;;
6348;SDS011;3207;42.648;23.406;2023-04-21T05:02:25;15.02;;;12.02;;
6348;SDS011;3207;42.648;23.406;2023-04-21T05:04:52;15.02;;;12.30;;
6348;SDS011;3207;42.648;23.406;2023-04-21T05:07:20;14.45;;;11.50;;
6348;SDS011;3207;42.648;23.406;2023-04-21T05:09:47;17.20;;;11.35;;
6348;SDS011;3207;42.648;23.406;2023-04-21T05:12:14;17.93;;;12.33;;
6348;SDS011;3207;42.648;23.406;2023-04-21T05:14:41;14.97;;;13.33;;
6348;SDS011;3207;42.648;23.406;2023-04-21T05:17:07;17.17;;;12.17;;
6348;SDS011;3207;42.648;23.406;2023-04-21T05:19:34;15.00;;;11.45;;
6348;SDS011;3207;42.648;23.406;2023-04-21T05:22:02;15.63;;;11.63;;
6348;SDS011;3207;42.648;23.406;2023-04-21T05:24:32;17.08;;;12.65;;
6348;SDS011;3207;42.648;23.406;2023-04-21T05:26:59;26.67;;;12.48;;
6348;SDS011;3207;42.648;23.406;2023-04-21T05:29:27;16.42;;;12.00;;
6348;SDS011;3207;42.648;23.406;2023-04-21T05:31:53;17.83;;;13.10;;
6348;SDS011;3207;42.648;23.406;2023-04-21T05:34:20;16.70;;;12.10;;
6348;SDS011;3207;42.648;23.406;2023-04-21T05:36:47;14.93;;;13.32;;
6348;SDS011;3207;42.648;23.406;2023-04-21T05:39:14;18.20;;;13.10;;
6348;SDS011;3207;42.648;23.406;2023-04-21T05:41:43;16.58;;;13.93;;
6348;SDS011;3207;42.648;23.406;2023-04-21T05:44:10;18.40;;;12.63;;
6348;SDS011;3207;42.648;23.406;2023-04-21T05:46:36;16.67;;;12.60;;
6348;SDS011;3207;42.648;23.406;2023-04-21T05:49:03;17.27;;;12.00;;
6348;SDS011;3207;42.648;23.406;2023-04-21T05:51:30;17.17;;;13.00;;
6348;SDS011;3207;42.648;23.406;2023-04-21T05:53:57;14.55;;;12.85;;
6348;SDS011;3207;42.648;23.406;2023-04-21T05:56:24;14.13;;;12.52;;
6348;SDS011;3207;42.648;23.406;2023-04-21T05:58:52;17.55;;;13.50;;
6348;SDS011;3207;42.648;23.406;2023-04-21T06:01:19;13.73;;;11.43;;
6348;SDS011;3207;42.648;23.406;2023-04-21T06:03:45;16.40;;;12.20;;
6348;SDS011;3207;42.648;23.406;2023-04-21T06:06:14;16.23;;;12.68;;
6348;SDS011;3207;42.648;23.406;2023-04-21T06:08:41;22.60;;;11.82;;
6348;SDS011;3207;42.648;23.406;2023-04-21T06:11:08;14.60;;;11.25;;
6348;SDS011;3207;42.648;23.406;2023-04-21T06:13:35;14.55;;;12.57;;
6348;SDS011;3207;42.648;23.406;2023-04-21T06:16:03;13.32;;;11.60;;
6348;SDS011;3207;42.648;23.406;2023-04-21T06:18:30;17.08;;;12.13;;
6348;SDS011;3207;42.648;23.406;2023-04-21T06:20:57;13.85;;;11.27;;
6348;SDS011;3207;42.648;23.406;2023-04-21T06:23:24;12.82;;;11.52;;
6348;SDS011;3207;42.648;23.406;2023-04-21T06:25:57;16.17;;;12.77;;
6348;SDS011;3207;42.648;23.406;2023-04-21T06:28:28;16.60;;;12.52;;
6348;SDS011;3207;42.648;23.406;2023-04-21T06:31:05;15.13;;;11.73;;
6348;SDS011;3207;42.648;23.406;2023-04-21T06:33:33;19.70;;;11.75;;
6348;SDS011;3207;42.648;23.406;2023-04-21T06:36:00;17.13;;;12.73;;
6348;SDS011;3207;42.648;23.406;2023-04-21T06:38:27;17.65;;;11.75;;
6348;SDS011;3207;42.648;23.406;2023-04-21T06:40:54;13.00;;;10.90;;
6348;SDS011;3207;42.648;23.406;2023-04-21T06:43:21;16.63;;;11.93;;
6348;SDS011;3207;42.648;23.406;2023-04-21T06:45:48;14.60;;;12.68;;
6348;SDS011;3207;42.648;23.406;2023-04-21T06:48:16;16.45;;;11.75;;
6348;SDS011;3207;42.648;23.406;2023-04-21T06:50:43;13.07;;;11.18;;
6348;SDS011;3207;42.648;23.406;2023-04-21T06:53:10;12.98;;;11.68;;
6348;SDS011;3207;42.648;23.406;2023-04-21T06:55:37;13.68;;;10.90;;
6348;SDS011;3207;42.648;23.406;2023-04-21T06:58:04;13.82;;;12.02;;
6348;SDS011;3207;42.648;23.406;2023-04-21T07:00:31;16.25;;;11.90;;
6348;SDS011;3207;42.648;23.406;2023-04-21T07:02:58;13.65;;;11.32;;
6348;SDS011;3207;42.648;23.406;2023-04-21T07:05:26;10.07;;;9.18;;
6348;SDS011;3207;42.648;23.406;2023-04-21T07:07:53;12.40;;;7.95;;
6348;SDS011;3207;42.648;23.406;2023-04-21T07:10:23;9.80;;;8.80;;
6348;SDS011;3207;42.648;23.406;2023-04-21T07:12:50;16.98;;;8.73;;
6348;SDS011;3207;42.648;23.406;2023-04-21T07:15:17;12.38;;;7.97;;
6348;SDS011;3207;42.648;23.406;2023-04-21T07:17:44;11.38;;;9.48;;
6348;SDS011;3207;42.648;23.406;2023-04-21T07:20:11;10.10;;;9.23;;
6348;SDS011;3207;42.648;23.406;2023-04-21T07:22:39;9.48;;;8.27;;
6348;SDS011;3207;42.648;23.406;2023-04-21T07:25:06;14.48;;;8.25;;
6348;SDS011;3207;42.648;23.406;2023-04-21T07:27:34;11.00;;;8.07;;
6348;SDS011;3207;42.648;23.406;2023-04-21T07:30:01;8.73;;;7.50;;
6348;SDS011;3207;42.648;23.406;2023-04-21T07:32:28;10.90;;;7.47;;
6348;SDS011;3207;42.648;23.406;2023-04-21T07:34:55;9.75;;;7.00;;
6348;SDS011;3207;42.648;23.406;2023-04-21T07:37:22;10.43;;;7.32;;
6348;SDS011;3207;42.648;23.406;2023-04-21T07:39:52;8.55;;;7.53;;
6348;SDS011;3207;42.648;23.406;2023-04-21T07:42:19;11.20;;;7.25;;
6348;SDS011;3207;42.648;23.406;2023-04-21T07:44:46;10.98;;;6.90;;
6348;SDS011;3207;42.648;23.406;2023-04-21T07:47:13;8.48;;;7.63;;
6348;SDS011;3207;42.648;23.406;2023-04-21T07:49:40;16.23;;;8.07;;
6348;SDS011;3207;42.648;23.406;2023-04-21T07:52:07;10.27;;;7.45;;
6348;SDS011;3207;42.648;23.406;2023-04-21T07:54:34;8.60;;;7.25;;
6348;SDS011;3207;42.648;23.406;2023-04-21T07:57:02;7.53;;;6.57;;
6348;SDS011;3207;42.648;23.406;2023-04-21T07:59:29;10.43;;;7.82;;
6348;SDS011;3207;42.648;23.406;2023-04-21T08:01:56;10.05;;;7.30;;
6348;SDS011;3207;42.648;23.406;2023-04-21T08:04:23;10.52;;;8.07;;
6348;SDS011;3207;42.648;23.406;2023-04-21T08:06:49;10.65;;;7.60;;
6348;SDS011;3207;42.648;23.406;2023-04-21T08:09:16;9.77;;;8.30;;
6348;SDS011;3207;42.648;23.406;2023-04-21T08:11:46;8.75;;;7.57;;
6348;SDS011;3207;42.648;23.406;2023-04-21T08:14:14;10.20;;;7.85;;
6348;SDS011;3207;42.648;23.406;2023-04-21T08:16:41;9.43;;;7.90;;
6348;SDS011;3207;42.648;23.406;2023-04-21T08:19:08;12.63;;;8.07;;
6348;SDS011;3207;42.648;23.406;2023-04-21T08:21:35;9.10;;;8.20;;
6348;SDS011;3207;42.648;23.406;2023-04-21T08:24:02;10.23;;;9.15;;
6348;SDS011;3207;42.648;23.406;2023-04-21T08:26:29;11.75;;;8.57;;
6348;SDS011;3207;42.648;23.406;2023-04-21T08:28:58;13.95;;;9.90;;
6348;SDS011;3207;42.648;23.406;2023-04-21T08:31:26;11.45;;;10.32;;
6348;SDS011;3207;42.648;23.406;2023-04-21T08:33:53;12.15;;;10.50;;
6348;SDS011;3207;42.648;23.406;2023-04-21T08:36:20;11.18;;;10.07;;
6348;SDS011;3207;42.648;23.406;2023-04-21T08:38:47;10.52;;;9.25;;
6348;SDS011;3207;42.648;23.406;2023-04-21T08:41:15;9.88;;;8.95;;
6348;SDS011;3207;42.648;23.406;2023-04-21T08:43:42;11.52;;;9.55;;
6348;SDS011;3207;42.648;23.406;2023-04-21T08:46:08;12.13;;;9.10;;
6348;SDS011;3207;42.648;23.406;2023-04-21T08:48:37;10.77;;;8.82;;
6348;SDS011;3207;42.648;23.406;2023-04-21T08:51:06;11.52;;;10.45;;
6348;SDS011;3207;42.648;23.406;2023-04-21T08:53:35;10.20;;;9.20;;
6348;SDS011;3207;42.648;23.406;2023-04-21T08:56:01;14.68;;;9.90;;
6348;SDS011;3207;42.648;23.406;2023-04-21T08:58:29;12.43;;;10.23;;
6348;SDS011;3207;42.648;23.406;2023-04-21T09:00:56;10.00;;;9.10;;
6348;SDS011;3207;42.648;23.406;2023-04-21T09:03:23;11.13;;;8.93;;
6348;SDS011;3207;42.648;23.406;2023-04-21T09:05:59;9.68;;;8.77;;
6348;SDS011;3207;42.648;23.406;2023-04-21T09:08:27;14.63;;;10.55;;
6348;SDS011;3207;42.648;23.406;2023-04-21T09:10:55;9.77;;;8.23;;
6348;SDS011;3207;42.648;23.406;2023-04-21T09:13:27;10.43;;;7.50;;
6348;SDS011;3207;42.648;23.406;2023-04-21T09:15:55;9.45;;;8.60;;
6348;SDS011;3207;42.648;23.406;2023-04-21T09:18:22;10.50;;;8.68;;
6348;SDS011;3207;42.648;23.406;2023-04-21T09:20:50;11.32;;;7.78;;
6348;SDS011;3207;42.648;23.406;2023-04-21T09:23:31;9.95;;;7.90;;
6348;SDS011;3207;42.648;23.406;2023-04-21T09:26:05;12.52;;;8.35;;
6348;SDS011;3207;42.648;23.406;2023-04-21T09:28:32;10.93;;;9.07;;
6348;SDS011;3207;42.648;23.406;2023-04-21T09:30:59;9.75;;;8.75;;
6348;SDS011;3207;42.648;23.406;2023-04-21T09:33:26;10.93;;;8.60;;
6348;SDS011;3207;42.648;23.406;2023-04-21T09:35:53;10.23;;;8.50;;
6348;SDS011;3207;42.648;23.406;2023-04-21T09:38:20;10.45;;;9.45;;
6348;SDS011;3207;42.648;23.406;2023-04-21T09:40:56;11.00;;;8.32;;
6348;SDS011;3207;42.648;23.406;2023-04-21T09:43:23;11.25;;;9.30;;
6348;SDS011;3207;42.648;23.406;2023-04-21T09:45:50;10.10;;;9.18;;
6348;SDS011;3207;42.648;23.406;2023-04-21T09:48:18;10.63;;;9.57;;
6348;SDS011;3207;42.648;23.406;2023-04-21T09:50:50;11.75;;;9.43;;
6348;SDS011;3207;42.648;23.406;2023-04-21T09:53:19;15.15;;;10.70;;
6348;SDS011;3207;42.648;23.406;2023-04-21T09:55:49;12.23;;;10.65;;
6348;SDS011;3207;42.648;23.406;2023-04-21T09:58:22;15.40;;;9.45;;
6348;SDS011;3207;42.648;23.406;2023-04-21T10:00:52;10.02;;;9.07;;
6348;SDS011;3207;42.648;23.406;2023-04-21T10:03:22;9.60;;;8.60;;
6348;SDS011;3207;42.648;23.406;2023-04-21T10:05:52;9.60;;;8.60;;
6348;SDS011;3207;42.648;23.406;2023-04-21T10:08:20;10.05;;;8.02;;
6348;SDS011;3207;42.648;23.406;2023-04-21T10:10:47;8.68;;;7.78;;
6348;SDS011;3207;42.648;23.406;2023-04-21T10:13:16;11.50;;;8.27;;
6348;SDS011;3207;42.648;23.406;2023-04-21T10:15:45;9.63;;;7.80;;
6348;SDS011;3207;42.648;23.406;2023-04-21T10:18:14;10.75;;;8.35;;
6348;SDS011;3207;42.648;23.406;2023-04-21T10:20:52;8.98;;;8.05;;
6348;SDS011;3207;42.648;23.406;2023-04-21T10:23:27;8.98;;;7.43;;
6348;SDS011;3207;42.648;23.406;2023-04-21T10:26:00;9.63;;;8.60;;
6348;SDS011;3207;42.648;23.406;2023-04-21T10:31:30;10.20;;;9.20;;
6348;SDS011;3207;42.648;23.406;2023-04-21T10:34:14;8.68;;;7.85;;
6348;SDS011;3207;42.648;23.406;2023-04-21T10:36:42;9.80;;;8.90;;
6348;SDS011;3207;42.648;23.406;2023-04-21T10:39:23;9.35;;;8.43;;
6348;SDS011;3207;42.648;23.406;2023-04-21T10:41:53;10.02;;;9.13;;
6348;SDS011;3207;42.648;23.406;2023-04-21T10:44:20;12.70;;;9.02;;
6348;SDS011;3207;42.648;23.406;2023-04-21T10:46:52;17.00;;;10.27;;
6348;SDS011;3207;42.648;23.406;2023-04-21T10:49:20;11.30;;;9.73;;
6348;SDS011;3207;42.648;23.406;2023-04-21T10:52:04;8.50;;;7.60;;
6348;SDS011;3207;42.648;23.406;2023-04-21T10:54:35;11.38;;;8.30;;
6348;SDS011;3207;42.648;23.406;2023-04-21T10:57:06;9.88;;;8.93;;
6348;SDS011;3207;42.648;23.406;2023-04-21T10:59:35;11.63;;;8.82;;
6348;SDS011;3207;42.648;23.406;2023-04-21T11:02:05;8.98;;;8.18;;
6348;SDS011;3207;42.648;23.406;2023-04-21T11:04:33;8.38;;;7.68;;
6348;SDS011;3207;42.648;23.406;2023-04-21T11:07:04;9.63;;;7.90;;
6348;SDS011;3207;42.648;23.406;2023-04-21T11:09:32;8.13;;;7.32;;
6348;SDS011;3207;42.648;23.406;2023-04-21T11:11:59;8.65;;;7.75;;
6348;SDS011;3207;42.648;23.406;2023-04-21T11:14:26;7.70;;;6.90;;
6348;SDS011;3207;42.648;23.406;2023-04-21T11:16:53;6.78;;;6.18;;
6348;SDS011;3207;42.648;23.406;2023-04-21T11:19:21;7.53;;;6.93;;
6348;SDS011;3207;42.648;23.406;2023-04-21T11:21:50;8.85;;;7.88;;
6348;SDS011;3207;42.648;23.406;2023-04-21T11:24:18;7.57;;;6.88;;
6348;SDS011;3207;42.648;23.406;2023-04-21T11:26:45;8.80;;;7.90;;
6348;SDS011;3207;42.648;23.406;2023-04-21T11:29:12;11.00;;;7.82;;
6348;SDS011;3207;42.648;23.406;2023-04-21T11:31:40;9.50;;;7.15;;
6348;SDS011;3207;42.648;23.406;2023-04-21T11:34:08;12.30;;;8.07;;
6348;SDS011;3207;42.648;23.406;2023-04-21T11:36:37;6.65;;;5.97;;
6348;SDS011;3207;42.648;23.406;2023-04-21T11:39:06;6.07;;;5.30;;
6348;SDS011;3207;42.648;23.406;2023-04-21T11:41:34;7.65;;;6.60;;
6348;SDS011;3207;42.648;23.406;2023-04-21T11:44:01;9.40;;;6.50;;
6348;SDS011;3207;42.648;23.406;2023-04-21T11:46:28;7.50;;;6.30;;
6348;SDS011;3207;42.648;23.406;2023-04-21T11:48:59;4.63;;;4.20;;
6348;SDS011;3207;42.648;23.406;2023-04-21T11:51:31;5.95;;;4.90;;
6348;SDS011;3207;42.648;23.406;2023-04-21T11:54:00;7.80;;;5.35;;
6348;SDS011;3207;42.648;23.406;2023-04-21T11:56:27;9.90;;;6.20;;
6348;SDS011;3207;42.648;23.406;2023-04-21T11:58:54;8.38;;;6.32;;
6348;SDS011;3207;42.648;23.406;2023-04-21T12:01:21;10.95;;;6.15;;
6348;SDS011;3207;42.648;23.406;2023-04-21T12:03:51;9.55;;;6.80;;
6348;SDS011;3207;42.648;23.406;2023-04-21T12:06:21;7.10;;;5.65;;
6348;SDS011;3207;42.648;23.406;2023-04-21T12:08:53;6.70;;;5.60;;
6348;SDS011;3207;42.648;23.406;2023-04-21T12:11:23;8.50;;;5.40;;
6348;SDS011;3207;42.648;23.406;2023-04-21T12:13:50;7.05;;;5.25;;
6348;SDS011;3207;42.648;23.406;2023-04-21T12:16:17;7.50;;;6.32;;
6348;SDS011;3207;42.648;23.406;2023-04-21T12:18:44;6.07;;;4.93;;
6348;SDS011;3207;42.648;23.406;2023-04-21T12:21:13;7.30;;;5.53;;
6348;SDS011;3207;42.648;23.406;2023-04-21T12:23:42;12.38;;;5.93;;
6348;SDS011;3207;42.648;23.406;2023-04-21T12:26:09;9.13;;;4.53;;
6348;SDS011;3207;42.648;23.406;2023-04-21T12:28:38;6.00;;;4.80;;
6348;SDS011;3207;42.648;23.406;2023-04-21T12:31:05;6.63;;;5.05;;
6348;SDS011;3207;42.648;23.406;2023-04-21T12:33:32;6.15;;;5.22;;
6348;SDS011;3207;42.648;23.406;2023-04-21T12:35:59;7.40;;;4.93;;
6348;SDS011;3207;42.648;23.406;2023-04-21T12:38:26;8.30;;;4.45;;
6348;SDS011;3207;42.648;23.406;2023-04-21T12:40:52;4.72;;;4.30;;
6348;SDS011;3207;42.648;23.406;2023-04-21T12:43:19;6.72;;;5.15;;
6348;SDS011;3207;42.648;23.406;2023-04-21T12:45:47;5.40;;;4.60;;
6348;SDS011;3207;42.648;23.406;2023-04-21T12:48:16;7.28;;;5.07;;
6348;SDS011;3207;42.648;23.406;2023-04-21T12:50:43;6.00;;;4.50;;
6348;SDS011;3207;42.648;23.406;2023-04-21T12:53:10;5.03;;;4.60;;
6348;SDS011;3207;42.648;23.406;2023-04-21T12:55:37;6.40;;;4.75;;
6348;SDS011;3207;42.648;23.406;2023-04-21T12:58:05;5.32;;;4.82;;
6348;SDS011;3207;42.648;23.406;2023-04-21T13:00:31;5.20;;;4.65;;
6348;SDS011;3207;42.648;23.406;2023-04-21T13:03:01;6.57;;;4.60;;
6348;SDS011;3207;42.648;23.406;2023-04-21T13:05:28;6.88;;;5.30;;
6348;SDS011;3207;42.648;23.406;2023-04-21T13:07:58;7.63;;;5.35;;
6348;SDS011;3207;42.648;23.406;2023-04-21T13:10:24;7.28;;;4.63;;
6348;SDS011;3207;42.648;23.406;2023-04-21T13:12:51;8.00;;;5.47;;
6348;SDS011;3207;42.648;23.406;2023-04-21T13:15:18;7.43;;;5.47;;
6348;SDS011;3207;42.648;23.406;2023-04-21T13:17:45;8.27;;;5.25;;
6348;SDS011;3207;42.648;23.406;2023-04-21T13:20:13;6.82;;;5.28;;
6348;SDS011;3207;42.648;23.406;2023-04-21T13:22:43;5.72;;;4.97;;
6348;SDS011;3207;42.648;23.406;2023-04-21T13:25:10;8.63;;;5.75;;
6348;SDS011;3207;42.648;23.406;2023-04-21T13:27:36;8.93;;;5.93;;
6348;SDS011;3207;42.648;23.406;2023-04-21T13:30:05;5.85;;;5.13;;
6348;SDS011;3207;42.648;23.406;2023-04-21T13:32:33;5.05;;;4.60;;
6348;SDS011;3207;42.648;23.406;2023-04-21T13:35:00;8.82;;;5.38;;
6348;SDS011;3207;42.648;23.406;2023-04-21T13:37:30;5.80;;;5.30;;
6348;SDS011;3207;42.648;23.406;2023-04-21T13:39:57;7.10;;;5.25;;
6348;SDS011;3207;42.648;23.406;2023-04-21T13:42:24;5.20;;;4.80;;
6348;SDS011;3207;42.648;23.406;2023-04-21T13:44:50;8.50;;;4.93;;
6348;SDS011;3207;42.648;23.406;2023-04-21T13:47:17;9.32;;;5.03;;
6348;SDS011;3207;42.648;23.406;2023-04-21T13:49:44;7.22;;;4.72;;
6348;SDS011;3207;42.648;23.406;2023-04-21T13:52:11;4.97;;;4.55;;
6348;SDS011;3207;42.648;23.406;2023-04-21T13:54:39;11.98;;;6.00;;
6348;SDS011;3207;42.648;23.406;2023-04-21T13:57:06;5.38;;;4.38;;
6348;SDS011;3207;42.648;23.406;2023-04-21T13:59:33;5.32;;;4.65;;
6348;SDS011;3207;42.648;23.406;2023-04-21T14:02:00;9.55;;;4.97;;
6348;SDS011;3207;42.648;23.406;2023-04-21T14:04:26;7.63;;;4.43;;
6348;SDS011;3207;42.648;23.406;2023-04-21T14:06:53;9.70;;;5.10;;
6348;SDS011;3207;42.648;23.406;2023-04-21T14:09:20;5.78;;;5.05;;
6348;SDS011;3207;42.648;23.406;2023-04-21T14:11:49;8.07;;;5.13;;
6348;SDS011;3207;42.648;23.406;2023-04-21T14:14:15;7.68;;;4.50;;
6348;SDS011;3207;42.648;23.406;2023-04-21T14:16:42;5.43;;;4.30;;
6348;SDS011;3207;42.648;23.406;2023-04-21T14:19:09;9.05;;;4.63;;
6348;SDS011;3207;42.648;23.406;2023-04-21T14:21:36;5.43;;;4.65;;
6348;SDS011;3207;42.648;23.406;2023-04-21T14:24:02;5.13;;;4.63;;
6348;SDS011;3207;42.648;23.406;2023-04-21T14:26:30;10.27;;;5.55;;
6348;SDS011;3207;42.648;23.406;2023-04-21T14:28:58;7.10;;;4.50;;
6348;SDS011;3207;42.648;23.406;2023-04-21T14:31:25;4.57;;;4.18;;
6348;SDS011;3207;42.648;23.406;2023-04-21T14:33:52;7.82;;;4.68;;
6348;SDS011;3207;42.648;23.406;2023-04-21T14:36:19;5.88;;;4.28;;
6348;SDS011;3207;42.648;23.406;2023-04-21T14:38:46;7.30;;;4.45;;
6348;SDS011;3207;42.648;23.406;2023-04-21T14:41:13;7.85;;;4.47;;
6348;SDS011;3207;42.648;23.406;2023-04-21T14:43:39;4.68;;;4.30;;
6348;SDS011;3207;42.648;23.406;2023-04-21T14:46:07;6.18;;;4.50;;
6348;SDS011;3207;42.648;23.406;2023-04-21T14:48:34;8.60;;;4.63;;
6348;SDS011;3207;42.648;23.406;2023-04-21T14:51:01;8.38;;;4.80;;
6348;SDS011;3207;42.648;23.406;2023-04-21T14:53:28;4.30;;;3.65;;